Time;durP1;ratioP1;P1;durP2;ratioP2;P2;SDS_P1;SDS_P2;PMS_P1;PMS_P2;Temp;Humidity;BMP_temperature;BMP_pressure;BME280_temperature;BME280_humidity;BME280_pressure;Samples;Min_cycle;Max_cycle;Signal;HPM_P1;HPM_P2
2021/09/23 00:01:37;;;;;;;40.10;35.55;;;12.10;99.90;;;;;;5069595;28;20047;-71
2021/09/23 00:06:40;;;;;;;41.83;34.90;;;12.10;99.90;;;;;;5064949;28;20127;-71
2021/09/23 00:09:06;;;;;;;44.80;34.55;;;12.10;99.90;;;;;;5070750;28;20067;-71
2021/09/23 00:11:32;;;;;;;41.25;33.63;;;12.10;99.90;;;;;;5072851;28;20222;-71
2021/09/23 00:13:58;;;;;;;40.28;33.75;;;12.10;99.90;;;;;;5072484;28;20036;-71
2021/09/23 00:16:24;;;;;;;42.25;35.35;;;12.10;99.90;;;;;;5073714;28;20474;-71
2021/09/23 00:18:51;;;;;;;37.33;31.63;;;12.10;99.90;;;;;;5074555;28;20044;-71
2021/09/23 00:21:18;;;;;;;43.58;33.65;;;12.10;99.90;;;;;;5073129;28;20067;-71
2021/09/23 00:23:45;;;;;;;41.53;34.80;;;12.10;99.90;;;;;;5063095;28;20041;-71
2021/09/23 00:26:11;;;;;;;38.22;32.55;;;12.10;99.90;;;;;;5043235;28;20048;-71
2021/09/23 00:28:37;;;;;;;40.95;34.55;;;12.10;99.90;;;;;;5073474;28;20397;-71
2021/09/23 00:31:03;;;;;;;39.47;31.92;;;12.10;99.90;;;;;;5070185;28;20229;-71
2021/09/23 00:33:28;;;;;;;40.60;33.72;;;12.10;99.90;;;;;;5068827;28;20079;-71
2021/09/23 00:35:54;;;;;;;41.53;34.45;;;12.10;99.90;;;;;;5056509;28;20048;-71
2021/09/23 00:38:19;;;;;;;38.15;32.38;;;12.10;99.90;;;;;;5055788;28;20052;-71
2021/09/23 00:40:45;;;;;;;45.45;35.65;;;12.10;99.90;;;;;;5061903;28;20033;-71
2021/09/23 00:43:11;;;;;;;38.35;30.95;;;12.10;99.90;;;;;;5072504;28;20125;-71
2021/09/23 00:45:37;;;;;;;40.00;33.05;;;12.10;99.90;;;;;;5070135;28;20048;-71
2021/09/23 00:48:03;;;;;;;46.58;34.65;;;12.10;99.90;;;;;;5053949;28;20040;-71
2021/09/23 00:50:28;;;;;;;41.35;32.58;;;12.10;99.90;;;;;;5071038;28;20044;-71
2021/09/23 00:52:54;;;;;;;43.10;34.53;;;12.10;99.90;;;;;;5072980;28;20048;-71
2021/09/23 00:55:20;;;;;;;35.80;30.33;;;12.10;99.90;;;;;;5072122;28;20114;-71
2021/09/23 00:57:45;;;;;;;43.35;33.90;;;12.10;99.90;;;;;;5071404;28;20393;-71
2021/09/23 01:00:13;;;;;;;42.75;34.10;;;12.10;99.90;;;;;;5070414;28;20055;-71
2021/09/23 01:02:39;;;;;;;40.85;32.95;;;12.00;99.90;;;;;;5066450;28;20471;-71
2021/09/23 01:05:06;;;;;;;42.00;33.92;;;12.00;99.90;;;;;;5068829;28;20037;-71
2021/09/23 01:07:32;;;;;;;42.05;33.70;;;12.00;99.90;;;;;;5070233;28;20132;-71
2021/09/23 01:09:57;;;;;;;45.40;34.47;;;12.00;99.90;;;;;;5070399;28;20036;-71
2021/09/23 01:12:24;;;;;;;42.45;33.72;;;12.00;99.90;;;;;;5054005;28;20044;-71
2021/09/23 01:14:52;;;;;;;43.20;34.22;;;12.00;99.90;;;;;;5071651;28;20049;-71
2021/09/23 01:17:18;;;;;;;42.63;33.97;;;12.00;99.90;;;;;;5072965;28;20058;-71
2021/09/23 01:19:45;;;;;;;39.65;31.38;;;12.00;99.90;;;;;;5070893;28;20082;-71
2021/09/23 01:22:12;;;;;;;45.92;33.10;;;12.00;99.90;;;;;;5070353;28;20403;-71
2021/09/23 01:24:38;;;;;;;40.17;32.95;;;12.00;99.90;;;;;;5070473;28;20055;-71
2021/09/23 01:27:06;;;;;;;41.80;33.65;;;12.00;99.90;;;;;;5054811;28;20068;-71
2021/09/23 01:29:32;;;;;;;40.45;32.75;;;12.00;99.90;;;;;;5055618;28;20051;-71
2021/09/23 01:31:58;;;;;;;40.92;32.20;;;12.00;99.90;;;;;;5071636;28;20040;-71
2021/09/23 01:34:24;;;;;;;42.15;33.58;;;12.00;99.90;;;;;;5072020;28;20039;-71
2021/09/23 01:36:49;;;;;;;40.97;32.42;;;12.00;99.90;;;;;;5054071;28;20067;-71
2021/09/23 01:39:23;;;;;;;50.15;34.45;;;12.00;99.90;;;;;;5069631;28;20040;-71
2021/09/23 01:41:49;;;;;;;42.30;32.90;;;12.00;99.90;;;;;;5060129;28;20158;-71
2021/09/23 01:44:15;;;;;;;41.45;32.97;;;12.00;99.90;;;;;;5054498;28;20052;-71
2021/09/23 01:46:41;;;;;;;42.00;32.28;;;11.90;99.90;;;;;;5070420;28;20124;-70
2021/09/23 01:49:06;;;;;;;39.10;31.92;;;11.90;99.90;;;;;;5072012;28;20037;-71
2021/09/23 01:51:32;;;;;;;38.95;31.85;;;11.90;99.90;;;;;;5072062;28;20044;-71
2021/09/23 01:53:58;;;;;;;37.30;29.83;;;11.90;99.90;;;;;;5086625;28;20056;-71
2021/09/23 01:56:23;;;;;;;39.55;31.83;;;12.00;99.90;;;;;;5069858;28;20044;-71
2021/09/23 01:58:49;;;;;;;41.58;32.88;;;11.90;99.90;;;;;;5054365;28;20048;-71
2021/09/23 02:01:14;;;;;;;40.70;32.28;;;11.90;99.90;;;;;;5071182;28;20485;-71
2021/09/23 02:03:40;;;;;;;40.80;32.35;;;11.90;99.90;;;;;;5071487;28;20126;-71
2021/09/23 02:06:06;;;;;;;41.47;31.83;;;11.90;99.90;;;;;;5070706;28;20047;-71
2021/09/23 02:08:31;;;;;;;40.58;31.85;;;11.90;99.90;;;;;;5053975;28;20037;-71
2021/09/23 02:10:57;;;;;;;42.65;31.60;;;11.90;99.90;;;;;;5069445;28;20033;-71
2021/09/23 02:13:23;;;;;;;40.47;32.00;;;11.90;99.90;;;;;;5070855;28;20033;-71
2021/09/23 02:15:48;;;;;;;40.60;32.90;;;11.90;99.90;;;;;;5071096;28;20048;-71
2021/09/23 02:18:14;;;;;;;42.90;34.13;;;11.80;99.90;;;;;;5069244;28;20045;-71
2021/09/23 02:20:40;;;;;;;42.15;32.92;;;11.80;99.90;;;;;;5072206;28;20032;-71
2021/09/23 02:23:05;;;;;;;40.72;29.83;;;11.80;99.90;;;;;;5070750;28;20390;-71
2021/09/23 02:25:31;;;;;;;41.78;32.30;;;11.80;99.90;;;;;;5068112;28;20039;-71
2021/09/23 02:27:57;;;;;;;44.88;34.50;;;11.80;99.90;;;;;;5066263;28;20055;-71
2021/09/23 02:30:24;;;;;;;40.65;31.52;;;11.80;99.90;;;;;;5069874;28;20141;-71
2021/09/23 02:32:49;;;;;;;39.92;31.38;;;11.80;99.90;;;;;;5069815;28;20131;-71
2021/09/23 02:35:15;;;;;;;43.03;32.33;;;11.90;99.90;;;;;;5054149;28;20119;-71
2021/09/23 02:37:41;;;;;;;40.50;32.88;;;11.90;99.90;;;;;;5069533;28;20388;-71
2021/09/23 02:40:08;;;;;;;42.97;32.03;;;11.80;99.90;;;;;;5068656;28;20072;-71
2021/09/23 02:42:34;;;;;;;42.97;32.28;;;11.80;99.90;;;;;;5069707;28;20119;-71
2021/09/23 02:44:59;;;;;;;46.13;34.10;;;11.80;99.90;;;;;;5069895;28;20210;-71
2021/09/23 02:47:26;;;;;;;44.33;32.78;;;11.80;99.90;;;;;;5069755;28;20052;-71
2021/09/23 02:49:52;;;;;;;45.75;33.88;;;11.80;99.90;;;;;;5070807;28;20488;-71
2021/09/23 02:52:18;;;;;;;45.03;34.08;;;11.80;99.90;;;;;;5071193;28;20056;-71
2021/09/23 02:54:44;;;;;;;43.17;31.83;;;11.80;99.90;;;;;;5069292;28;20131;-71
2021/09/23 02:57:10;;;;;;;47.17;33.60;;;11.80;99.90;;;;;;5070567;28;20040;-71
2021/09/23 02:59:36;;;;;;;43.67;33.95;;;11.80;99.90;;;;;;5070329;28;20051;-71
2021/09/23 03:02:01;;;;;;;42.05;33.45;;;11.80;99.90;;;;;;5067319;28;20047;-71
2021/09/23 03:04:27;;;;;;;43.63;33.88;;;11.80;99.90;;;;;;5067998;28;20032;-71
2021/09/23 03:06:52;;;;;;;42.45;31.45;;;11.80;99.90;;;;;;5069827;28;20040;-71
2021/09/23 03:09:18;;;;;;;47.40;34.75;;;11.80;99.90;;;;;;5067028;28;20044;-71
2021/09/23 03:11:44;;;;;;;40.40;32.92;;;11.80;99.90;;;;;;5068630;28;20052;-71
2021/09/23 03:14:10;;;;;;;46.22;32.80;;;11.80;99.90;;;;;;5069844;28;20149;-71
2021/09/23 03:16:36;;;;;;;44.90;34.97;;;11.90;99.90;;;;;;5060636;28;20137;-71
2021/09/23 03:19:02;;;;;;;45.33;32.47;;;11.90;99.90;;;;;;5069423;28;20032;-71
2021/09/23 03:21:28;;;;;;;43.60;33.83;;;11.90;99.90;;;;;;5066214;28;20055;-71
2021/09/23 03:23:53;;;;;;;48.08;35.35;;;11.90;99.90;;;;;;5068270;28;20477;-71
2021/09/23 03:26:19;;;;;;;43.85;34.13;;;11.90;99.90;;;;;;5061617;28;20048;-71
2021/09/23 03:28:45;;;;;;;45.90;34.22;;;11.90;99.90;;;;;;5061723;28;20043;-71
2021/09/23 03:31:11;;;;;;;45.03;35.17;;;11.90;99.90;;;;;;5070991;28;20036;-71
2021/09/23 03:33:36;;;;;;;43.47;33.38;;;11.90;99.90;;;;;;5068903;28;20476;-71
2021/09/23 03:36:03;;;;;;;50.13;35.60;;;11.90;99.90;;;;;;5069639;28;20048;-71
2021/09/23 03:38:29;;;;;;;50.63;36.17;;;11.90;99.90;;;;;;5068194;28;20041;-71
2021/09/23 03:40:55;;;;;;;46.25;33.88;;;11.90;99.90;;;;;;5071077;28;20408;-71
2021/09/23 03:43:20;;;;;;;45.47;33.92;;;11.90;99.90;;;;;;5068124;28;20036;-71
2021/09/23 03:45:49;;;;;;;45.58;33.47;;;11.90;99.90;;;;;;5069705;28;20040;-71
2021/09/23 03:48:15;;;;;;;43.95;33.85;;;12.00;99.90;;;;;;5068583;28;20048;-71
2021/09/23 03:50:41;;;;;;;48.00;35.42;;;11.90;99.90;;;;;;5069638;28;20036;-71
2021/09/23 03:53:06;;;;;;;46.97;34.20;;;12.00;99.90;;;;;;5067138;28;20056;-71
2021/09/23 03:55:32;;;;;;;50.85;36.75;;;12.00;99.90;;;;;;5067403;28;20132;-71
2021/09/23 03:57:58;;;;;;;47.65;34.65;;;12.00;99.90;;;;;;5069586;28;20048;-71
2021/09/23 04:00:25;;;;;;;47.42;34.33;;;12.00;99.90;;;;;;5068152;28;20045;-71
2021/09/23 04:02:51;;;;;;;50.20;36.85;;;12.00;99.90;;;;;;5065176;28;20080;-71
2021/09/23 04:05:17;;;;;;;49.10;33.70;;;12.00;99.90;;;;;;5067599;28;20123;-71
2021/09/23 04:07:43;;;;;;;51.92;36.38;;;12.00;99.90;;;;;;5066723;28;20492;-71
2021/09/23 04:10:09;;;;;;;49.30;36.53;;;12.10;99.90;;;;;;5051562;28;20049;-71
2021/09/23 04:12:35;;;;;;;47.47;35.63;;;12.10;99.90;;;;;;5067880;28;20051;-71
2021/09/23 04:15:01;;;;;;;46.45;34.75;;;12.10;99.90;;;;;;5068532;28;20080;-71
2021/09/23 04:17:27;;;;;;;49.25;36.20;;;12.10;99.90;;;;;;5066901;28;20064;-71
2021/09/23 04:19:52;;;;;;;46.78;35.78;;;12.10;99.90;;;;;;5068162;28;20036;-71
2021/09/23 04:22:18;;;;;;;53.08;36.22;;;12.20;99.90;;;;;;5070789;28;20692;-71
2021/09/23 04:24:44;;;;;;;49.22;36.17;;;12.30;99.90;;;;;;5068727;28;20173;-71
2021/09/23 04:27:10;;;;;;;53.40;37.20;;;12.30;99.90;;;;;;5067639;28;20409;-72
2021/09/23 04:29:36;;;;;;;49.10;36.53;;;12.40;99.90;;;;;;5067816;28;20517;-71
2021/09/23 04:32:02;;;;;;;52.20;37.78;;;12.40;99.90;;;;;;5068302;28;20040;-71
2021/09/23 04:34:27;;;;;;;52.53;38.25;;;12.40;99.90;;;;;;5068747;28;20601;-71
2021/09/23 04:36:53;;;;;;;53.00;38.92;;;12.40;99.90;;;;;;5068408;28;20032;-71
2021/09/23 04:39:18;;;;;;;52.67;37.00;;;12.50;99.90;;;;;;5069590;28;20555;-71
2021/09/23 04:41:45;;;;;;;54.50;38.40;;;12.50;99.90;;;;;;5068821;28;20033;-71
2021/09/23 04:44:10;;;;;;;52.50;39.15;;;12.50;99.90;;;;;;5066689;28;20374;-71
2021/09/23 04:46:36;;;;;;;56.03;39.28;;;12.40;99.90;;;;;;5069208;28;20059;-71
2021/09/23 04:49:02;;;;;;;55.95;40.88;;;12.40;99.90;;;;;;5068111;28;20051;-71
2021/09/23 04:51:28;;;;;;;57.42;40.90;;;12.40;99.90;;;;;;5069277;28;20048;-71
2021/09/23 04:53:55;;;;;;;60.08;41.33;;;12.30;99.90;;;;;;5067686;28;20139;-71
2021/09/23 04:56:21;;;;;;;57.90;41.75;;;12.30;99.90;;;;;;5071077;28;20036;-71
2021/09/23 04:58:47;;;;;;;60.05;42.22;;;12.30;99.90;;;;;;5070634;28;20165;-71
2021/09/23 05:01:13;;;;;;;58.45;41.47;;;12.30;99.90;;;;;;5072401;28;20643;-71
2021/09/23 05:03:39;;;;;;;61.63;42.38;;;12.30;99.90;;;;;;5054153;28;20478;-71
2021/09/23 05:06:04;;;;;;;63.45;43.70;;;12.30;99.90;;;;;;5072276;28;20040;-71
2021/09/23 05:08:30;;;;;;;62.17;42.05;;;12.30;99.90;;;;;;5071542;28;20040;-71
2021/09/23 05:10:56;;;;;;;61.28;42.95;;;12.30;99.90;;;;;;5072712;28;20055;-71
2021/09/23 05:13:21;;;;;;;57.42;40.20;;;12.30;99.90;;;;;;5070494;28;20040;-71
2021/09/23 05:15:47;;;;;;;61.67;43.53;;;12.40;99.90;;;;;;5071895;28;20090;-71
2021/09/23 05:18:13;;;;;;;59.08;42.90;;;12.40;99.90;;;;;;5071877;28;20161;-71
2021/09/23 05:20:39;;;;;;;60.40;41.58;;;12.30;99.90;;;;;;5073601;28;20171;-71
2021/09/23 05:23:06;;;;;;;64.65;46.00;;;12.40;99.90;;;;;;5071171;28;20370;-71
2021/09/23 05:25:32;;;;;;;64.85;44.03;;;12.30;99.90;;;;;;5055323;28;20473;-71
2021/09/23 05:27:58;;;;;;;62.50;44.05;;;12.30;99.90;;;;;;5067913;28;20071;-71
2021/09/23 05:30:24;;;;;;;63.95;44.33;;;12.30;99.90;;;;;;5068079;28;20581;-71
2021/09/23 05:32:50;;;;;;;66.15;44.80;;;12.40;99.90;;;;;;5068875;28;20540;-71
2021/09/23 05:35:16;;;;;;;62.97;44.55;;;12.40;99.90;;;;;;5070563;28;20045;-71
2021/09/23 05:37:42;;;;;;;63.78;44.58;;;12.40;99.90;;;;;;5069992;28;20058;-71
2021/09/23 05:40:09;;;;;;;73.45;45.13;;;12.40;99.90;;;;;;5055444;28;20197;-71
2021/09/23 05:42:35;;;;;;;67.72;44.65;;;12.50;99.90;;;;;;5071052;28;20458;-71
2021/09/23 05:45:00;;;;;;;64.70;45.42;;;12.50;99.90;;;;;;5071378;28;20486;-71
2021/09/23 05:47:26;;;;;;;67.82;45.50;;;12.50;99.90;;;;;;5070890;28;20123;-72
2021/09/23 05:49:51;;;;;;;75.20;47.72;;;12.50;99.90;;;;;;5071326;28;20052;-71
2021/09/23 05:52:19;;;;;;;63.30;44.33;;;12.50;99.90;;;;;;5067807;28;20044;-71
2021/09/23 05:54:45;;;;;;;59.90;42.60;;;12.60;99.90;;;;;;5054405;28;20036;-71
2021/09/23 05:57:11;;;;;;;70.82;46.42;;;12.60;99.90;;;;;;5070220;28;20098;-71
2021/09/23 05:59:37;;;;;;;61.78;42.65;;;12.70;99.90;;;;;;5071329;28;20044;-71
2021/09/23 06:02:02;;;;;;;58.25;40.35;;;12.70;99.90;;;;;;5066234;28;20040;-71
2021/09/23 06:04:28;;;;;;;66.10;46.38;;;12.80;99.90;;;;;;5058654;28;20044;-72
2021/09/23 06:06:53;;;;;;;65.10;44.22;;;12.80;99.90;;;;;;5068641;28;20045;-71
2021/09/23 06:09:19;;;;;;;71.00;47.08;;;12.90;99.90;;;;;;5070670;28;20119;-71
2021/09/23 06:11:45;;;;;;;59.17;42.03;;;12.90;99.90;;;;;;5069230;28;20072;-72
2021/09/23 06:14:11;;;;;;;68.70;44.63;;;13.00;99.90;;;;;;5070054;28;20049;-71
2021/09/23 06:16:36;;;;;;;59.88;44.08;;;13.00;99.90;;;;;;5071758;28;20030;-72
2021/09/23 06:19:02;;;;;;;66.07;45.28;;;13.00;99.90;;;;;;5069409;28;20143;-72
2021/09/23 06:21:28;;;;;;;59.85;42.97;;;13.00;99.90;;;;;;5069974;28;20390;-71
2021/09/23 06:23:55;;;;;;;60.17;44.03;;;13.00;99.90;;;;;;5069561;28;20814;-71
2021/09/23 06:26:22;;;;;;;62.83;44.30;;;13.10;99.90;;;;;;5069228;28;20110;-72
2021/09/23 06:28:48;;;;;;;60.67;42.55;;;13.10;99.90;;;;;;5069355;28;20414;-72
2021/09/23 06:31:14;;;;;;;63.67;44.90;;;13.20;99.90;;;;;;5056232;28;20094;-72
2021/09/23 06:33:40;;;;;;;61.35;43.75;;;13.20;99.90;;;;;;5068532;28;20053;-72
2021/09/23 06:36:06;;;;;;;59.20;42.33;;;13.20;99.90;;;;;;5070138;28;20040;-73
2021/09/23 06:38:32;;;;;;;54.67;40.78;;;13.20;99.90;;;;;;5062979;28;20178;-72
2021/09/23 06:40:58;;;;;;;58.47;42.05;;;13.30;99.90;;;;;;5070259;28;20099;-72
2021/09/23 06:43:24;;;;;;;61.28;44.58;;;13.30;99.90;;;;;;5069015;28;20032;-71
2021/09/23 06:45:50;;;;;;;57.53;41.30;;;13.30;99.90;;;;;;5051942;28;20045;-72
2021/09/23 06:48:16;;;;;;;64.13;45.92;;;13.30;99.90;;;;;;5054102;28;20067;-73
2021/09/23 06:50:42;;;;;;;66.20;44.20;;;13.40;99.90;;;;;;5070538;28;20114;-72
2021/09/23 06:53:07;;;;;;;65.20;44.17;;;13.40;99.90;;;;;;5059322;28;20077;-73
2021/09/23 06:55:33;;;;;;;60.47;43.15;;;13.50;99.90;;;;;;5081487;28;20120;-72
2021/09/23 06:57:58;;;;;;;60.45;42.78;;;13.70;99.90;;;;;;5046455;28;20097;-72
2021/09/23 07:00:26;;;;;;;56.33;41.90;;;13.80;99.90;;;;;;5053047;28;20036;-73
2021/09/23 07:02:52;;;;;;;60.15;43.90;;;13.90;99.90;;;;;;5048274;28;20105;-73
2021/09/23 07:05:17;;;;;;;57.45;41.75;;;13.90;99.90;;;;;;5056866;28;20765;-73
2021/09/23 07:07:43;;;;;;;54.70;43.20;;;14.10;99.90;;;;;;5058064;28;20071;-73
2021/09/23 07:10:09;;;;;;;54.53;41.17;;;14.10;99.90;;;;;;5065468;28;20098;-73
2021/09/23 07:12:35;;;;;;;54.08;40.95;;;14.20;99.90;;;;;;5068224;28;20093;-72
2021/09/23 07:15:00;;;;;;;54.22;41.55;;;14.30;99.90;;;;;;5069454;28;20090;-72
2021/09/23 07:17:26;;;;;;;51.90;39.00;;;14.50;99.90;;;;;;5069292;28;20036;-73
2021/09/23 07:19:52;;;;;;;49.53;38.53;;;14.60;99.90;;;;;;5069403;28;20048;-72
2021/09/23 07:22:17;;;;;;;52.05;38.05;;;14.80;99.90;;;;;;5071352;28;20045;-72
2021/09/23 07:24:44;;;;;;;46.83;38.25;;;15.00;99.90;;;;;;5067888;28;20044;-72
2021/09/23 07:27:09;;;;;;;50.97;39.17;;;15.10;99.90;;;;;;5038052;28;20041;-72
2021/09/23 07:29:35;;;;;;;44.90;35.35;;;15.20;99.90;;;;;;5053054;28;20385;-72
2021/09/23 07:32:01;;;;;;;46.53;37.45;;;15.20;99.90;;;;;;5055514;28;20044;-72
2021/09/23 07:34:27;;;;;;;47.08;37.97;;;15.10;99.90;;;;;;5068087;28;20140;-72
2021/09/23 07:36:52;;;;;;;45.00;35.30;;;15.20;99.90;;;;;;5068692;28;20075;-72
2021/09/23 07:39:19;;;;;;;47.45;36.17;;;15.20;99.90;;;;;;5066124;28;20040;-71
2021/09/23 07:41:44;;;;;;;45.22;36.03;;;15.20;99.90;;;;;;5061290;28;20050;-68
2021/09/23 07:44:14;;;;;;;45.33;36.20;;;15.20;99.90;;;;;;5057457;28;20045;-69
2021/09/23 07:46:40;;;;;;;38.65;31.80;;;15.30;99.90;;;;;;5069345;28;20040;-69
2021/09/23 07:49:06;;;;;;;43.22;33.53;;;15.30;99.90;;;;;;5070348;28;20044;-69
2021/09/23 07:51:33;;;;;;;41.22;32.00;;;15.30;99.90;;;;;;5069708;28;20143;-69
2021/09/23 07:53:58;;;;;;;43.25;31.60;;;15.30;99.90;;;;;;5052407;28;20043;-68
2021/09/23 07:56:24;;;;;;;45.65;33.60;;;15.40;99.90;;;;;;5066777;28;20048;-66
2021/09/23 07:58:49;;;;;;;39.97;30.58;;;15.40;99.90;;;;;;5067461;28;20080;-64
2021/09/23 08:01:15;;;;;;;35.47;26.25;;;15.60;99.90;;;;;;5082068;28;20119;-64
2021/09/23 08:03:41;;;;;;;33.97;26.40;;;15.70;99.90;;;;;;5062741;28;20037;-64
2021/09/23 08:06:07;;;;;;;36.20;26.55;;;15.80;99.90;;;;;;5086507;22;20087;-71
2021/09/23 08:08:33;;;;;;;29.70;23.05;;;16.00;99.90;;;;;;5061829;28;20111;-71
2021/09/23 08:11:00;;;;;;;28.63;22.33;;;16.00;99.90;;;;;;5065351;28;20371;-70
2021/09/23 08:13:26;;;;;;;30.45;21.73;;;16.20;99.90;;;;;;5049455;28;20037;-71
2021/09/23 08:15:51;;;;;;;26.42;20.90;;;16.30;99.90;;;;;;5053552;28;20378;-71
2021/09/23 08:18:19;;;;;;;23.83;19.02;;;16.40;99.90;;;;;;5051874;28;20045;-71
2021/09/23 08:20:45;;;;;;;25.25;19.23;;;16.60;99.90;;;;;;5051785;28;20116;-71
2021/09/23 08:23:10;;;;;;;18.25;14.60;;;16.90;99.90;;;;;;5054651;28;20114;-71
2021/09/23 08:25:36;;;;;;;16.92;13.77;;;17.10;99.90;;;;;;5060256;28;20117;-71
2021/09/23 08:28:02;;;;;;;15.05;11.93;;;17.10;99.90;;;;;;5056749;28;20044;-71
2021/09/23 08:30:27;;;;;;;11.30;7.93;;;17.20;99.90;;;;;;5081995;28;20059;-71
2021/09/23 08:32:53;;;;;;;9.15;6.85;;;17.30;99.90;;;;;;5066699;28;20075;-65
2021/09/23 08:35:19;;;;;;;8.52;5.20;;;17.30;99.90;;;;;;5069987;28;20473;-65
2021/09/23 08:37:46;;;;;;;7.43;4.93;;;17.40;99.90;;;;;;5075749;28;20111;-65
2021/09/23 08:40:12;;;;;;;5.53;4.40;;;17.50;99.90;;;;;;5077390;28;20040;-65
2021/09/23 08:42:45;;;;;;;10.13;4.78;;;17.70;99.90;;;;;;5075317;28;20044;-64
2021/09/23 08:45:15;;;;;;;8.27;4.40;;;17.60;99.90;;;;;;5078397;28;20032;-65
2021/09/23 08:47:42;;;;;;;6.50;3.80;;;17.60;99.90;;;;;;5048915;28;20048;-64
2021/09/23 08:50:12;;;;;;;7.20;4.18;;;17.70;99.90;;;;;;5056792;28;20041;-66
2021/09/23 08:52:38;;;;;;;5.85;3.53;;;17.70;99.90;;;;;;5076178;28;20079;-66
2021/09/23 08:55:04;;;;;;;8.85;4.68;;;17.80;99.90;;;;;;5075938;28;20044;-65
2021/09/23 08:57:33;;;;;;;8.98;3.97;;;17.80;99.90;;;;;;5045185;28;20036;-65
2021/09/23 09:00:09;;;;;;;6.45;3.75;;;17.80;99.90;;;;;;5066273;28;20040;-65
2021/09/23 09:02:34;;;;;;;6.20;3.38;;;17.90;99.90;;;;;;5061032;28;20044;-64
2021/09/23 09:05:00;;;;;;;5.90;3.90;;;17.90;99.90;;;;;;5039251;28;20048;-63
2021/09/23 09:07:28;;;;;;;7.18;3.38;;;18.00;99.90;;;;;;5061819;28;20194;-63
2021/09/23 09:10:08;;;;;;;4.65;2.97;;;18.00;99.90;;;;;;5069608;28;20045;-63
2021/09/23 09:12:34;;;;;;;5.90;3.10;;;18.10;99.90;;;;;;5032518;28;20478;-64
2021/09/23 09:15:00;;;;;;;6.55;3.05;;;18.30;99.90;;;;;;5059393;28;20412;-68
2021/09/23 09:17:33;;;;;;;4.65;3.25;;;18.50;99.90;;;;;;5036279;28;20052;-68
2021/09/23 09:20:00;;;;;;;6.82;3.33;;;18.50;99.90;;;;;;5048525;28;20389;-68
2021/09/23 09:22:28;;;;;;;4.30;2.72;;;18.60;99.90;;;;;;5055232;28;20489;-69
2021/09/23 09:25:08;;;;;;;4.80;2.47;;;18.70;99.90;;;;;;5047178;28;20529;-68
2021/09/23 09:27:38;;;;;;;6.80;2.22;;;18.90;99.90;;;;;;5028441;28;20052;-68
2021/09/23 09:30:11;;;;;;;5.35;2.83;;;18.80;99.90;;;;;;5048559;28;20078;-68
2021/09/23 09:32:43;;;;;;;5.78;2.22;;;18.90;99.90;;;;;;5049611;28;20121;-69
2021/09/23 09:35:12;;;;;;;5.50;2.40;;;19.00;99.90;;;;;;5025526;28;20441;-68
2021/09/23 09:37:40;;;;;;;6.75;2.67;;;19.00;99.90;;;;;;5046773;28;20039;-68
2021/09/23 09:40:10;;;;;;;4.18;2.50;;;19.00;99.90;;;;;;5047274;28;20072;-69
2021/09/23 09:42:35;;;;;;;9.43;2.20;;;19.10;99.90;;;;;;5042861;28;20359;-68
2021/09/23 09:45:01;;;;;;;6.68;2.33;;;19.30;99.90;;;;;;5068676;28;20066;-68
2021/09/23 09:47:35;;;;;;;6.15;2.53;;;19.30;99.90;;;;;;5046870;28;20055;-69
2021/09/23 09:50:15;;;;;;;3.67;1.83;;;19.50;99.90;;;;;;5046933;28;20127;-68
2021/09/23 09:52:48;;;;;;;3.67;1.65;;;19.80;99.90;;;;;;5048506;28;20085;-67
2021/09/23 09:55:14;;;;;;;4.05;1.88;;;19.80;99.90;;;;;;5050347;28;20468;-67
2021/09/23 09:57:44;;;;;;;3.47;1.90;;;19.70;99.90;;;;;;5042220;28;20119;-67
2021/09/23 10:00:11;;;;;;;6.70;1.92;;;19.60;99.90;;;;;;5043867;28;20051;-68
2021/09/23 10:02:37;;;;;;;7.05;2.30;;;19.40;99.90;;;;;;5044623;28;20115;-69
2021/09/23 10:05:03;;;;;;;4.50;1.85;;;19.30;99.90;;;;;;5047405;28;20496;-69
2021/09/23 10:07:30;;;;;;;12.40;2.08;;;19.30;99.90;;;;;;5050357;28;20611;-69
2021/09/23 10:09:56;;;;;;;5.63;1.80;;;19.10;99.90;;;;;;5051002;28;20058;-69
2021/09/23 10:12:23;;;;;;;5.28;2.35;;;19.00;99.90;;;;;;5047692;28;20094;-69
2021/09/23 10:14:50;;;;;;;7.85;2.08;;;18.80;99.90;;;;;;5049963;28;20048;-69
2021/09/23 10:17:15;;;;;;;6.72;1.92;;;18.70;99.90;;;;;;5052285;28;20037;-69
2021/09/23 10:19:43;;;;;;;4.28;1.85;;;18.70;99.90;;;;;;5049549;28;20043;-68
2021/09/23 10:22:12;;;;;;;6.90;2.38;;;18.70;99.90;;;;;;5049193;28;20167;-65
2021/09/23 10:24:43;;;;;;;5.18;1.75;;;18.70;99.90;;;;;;5063961;28;20505;-65
2021/09/23 10:29:57;;;;;;;46.95;3.90;;;18.70;99.90;;;;;;5067262;28;20172;-67
2021/09/23 10:32:23;;;;;;;9.25;1.90;;;18.80;99.90;;;;;;5049952;28;20045;-66
2021/09/23 10:34:52;;;;;;;7.03;2.10;;;18.80;99.90;;;;;;5060584;28;20768;-66
2021/09/23 10:37:19;;;;;;;3.75;1.88;;;18.80;99.90;;;;;;5062998;28;20037;-66
2021/09/23 10:39:48;;;;;;;6.65;2.03;;;18.80;99.90;;;;;;5066383;28;20040;-66
2021/09/23 10:42:20;;;;;;;5.07;1.67;;;18.90;99.90;;;;;;5064513;28;20429;-65
2021/09/23 10:44:48;;;;;;;4.47;1.80;;;18.90;99.90;;;;;;5071022;28;20075;-65
2021/09/23 10:47:22;;;;;;;4.57;1.95;;;18.90;99.90;;;;;;5071526;28;20071;-65
2021/09/23 10:49:48;;;;;;;3.60;1.80;;;18.90;99.90;;;;;;5044026;28;20097;-64
2021/09/23 10:52:14;;;;;;;7.20;2.00;;;19.00;99.90;;;;;;5048904;28;20052;-64
2021/09/23 10:54:40;;;;;;;10.38;2.22;;;18.90;99.90;;;;;;5060278;28;20076;-64
2021/09/23 10:57:07;;;;;;;6.65;2.00;;;18.80;99.90;;;;;;5058030;28;20090;-64
2021/09/23 10:59:33;;;;;;;7.10;2.05;;;18.70;99.90;;;;;;5046702;28;20037;-64
2021/09/23 11:02:22;;;;;;;9.15;2.28;;;18.70;99.90;;;;;;5052716;28;20109;-64
2021/09/23 11:04:53;;;;;;;5.50;1.98;;;18.50;99.90;;;;;;5050566;28;20028;-64
2021/09/23 11:07:21;;;;;;;11.05;2.15;;;18.50;99.90;;;;;;5071820;28;20065;-65
2021/09/23 11:10:08;;;;;;;7.20;2.00;;;18.50;99.90;;;;;;5053923;28;20032;-67
2021/09/23 11:12:34;;;;;;;7.05;2.00;;;18.50;99.90;;;;;;5069704;28;20045;-63
2021/09/23 11:15:02;;;;;;;5.80;1.63;;;18.60;99.90;;;;;;5070155;28;20076;-64
2021/09/23 11:17:28;;;;;;;8.50;2.03;;;18.60;99.90;;;;;;5050371;28;20689;-65
2021/09/23 11:20:02;;;;;;;6.22;2.20;;;18.50;99.90;;;;;;5050192;28;20489;-65
2021/09/23 11:22:39;;;;;;;7.63;2.30;;;18.40;99.90;;;;;;5067419;28;20082;-64
2021/09/23 11:25:10;;;;;;;8.05;2.60;;;18.50;99.90;;;;;;5030753;28;20033;-64
2021/09/23 11:27:37;;;;;;;8.27;2.10;;;18.50;99.90;;;;;;5069012;28;20048;-64
2021/09/23 11:30:09;;;;;;;8.80;1.85;;;18.50;99.90;;;;;;5074173;28;20044;-64
2021/09/23 11:33:08;;;;;;;7.40;1.83;;;18.50;99.90;;;;;;5051736;28;20051;-64
2021/09/23 11:35:38;;;;;;;6.28;2.30;;;18.40;99.90;;;;;;5032555;28;20487;-65
2021/09/23 11:38:05;;;;;;;5.97;1.83;;;18.30;99.90;;;;;;5078903;28;20554;-64
2021/09/23 11:40:34;;;;;;;7.10;2.10;;;18.30;99.90;;;;;;5050630;28;20060;-65
2021/09/23 11:43:06;;;;;;;3.45;1.60;;;18.20;99.90;;;;;;5076721;28;20044;-65
2021/09/23 11:45:35;;;;;;;5.97;1.75;;;18.20;99.90;;;;;;5072313;28;20044;-65
2021/09/23 11:48:08;;;;;;;8.93;2.00;;;18.10;99.90;;;;;;5072427;28;20452;-65
2021/09/23 11:50:44;;;;;;;11.68;2.30;;;18.10;99.90;;;;;;5050627;28;20190;-64
2021/09/23 11:53:13;;;;;;;7.05;2.17;;;18.10;99.90;;;;;;5070366;28;20036;-65
2021/09/23 11:55:43;;;;;;;7.43;2.08;;;17.90;99.90;;;;;;5049237;28;20041;-65
2021/09/23 11:58:12;;;;;;;8.95;2.50;;;18.00;99.90;;;;;;5069694;28;20059;-65
2021/09/23 12:00:43;;;;;;;6.43;2.67;;;17.90;99.90;;;;;;5069144;28;20033;-65
2021/09/23 12:03:10;;;;;;;6.77;1.70;;;17.80;99.90;;;;;;5067615;28;20037;-65
2021/09/23 12:05:36;;;;;;;8.10;2.33;;;17.80;99.90;;;;;;5053297;28;20850;-65
2021/09/23 12:08:13;;;;;;;8.15;2.17;;;17.70;99.90;;;;;;5074473;28;20503;-65
2021/09/23 12:10:48;;;;;;;8.63;2.75;;;17.80;99.90;;;;;;5074195;28;20033;-65
2021/09/23 12:13:20;;;;;;;7.65;2.63;;;17.80;99.90;;;;;;5065195;28;20035;-65
2021/09/23 12:15:51;;;;;;;6.57;2.10;;;18.00;99.90;;;;;;5080790;28;20103;-65
2021/09/23 12:18:17;;;;;;;7.30;2.50;;;18.20;99.90;;;;;;5078623;28;20378;-64
2021/09/23 12:20:46;;;;;;;9.98;2.65;;;18.30;99.90;;;;;;5073359;28;20340;-65
2021/09/23 12:23:47;;;;;;;8.65;2.25;;;18.50;99.90;;;;;;5077218;28;20054;-65
2021/09/23 12:26:22;;;;;;;7.72;2.10;;;18.60;99.90;;;;;;5050775;28;20055;-65
2021/09/23 12:28:59;;;;;;;8.30;2.45;;;18.60;99.90;;;;;;5066500;28;20044;-65
2021/09/23 12:31:42;;;;;;;8.60;2.55;;;18.60;99.90;;;;;;5077983;28;20039;-66
2021/09/23 12:34:10;;;;;;;8.05;2.10;;;18.50;99.90;;;;;;5070895;28;20067;-65
2021/09/23 12:36:42;;;;;;;6.63;2.42;;;18.60;99.90;;;;;;5062925;28;20107;-65
2021/09/23 12:39:19;;;;;;;6.90;2.42;;;18.60;99.90;;;;;;5054720;28;20070;-65